Time;durP1;ratioP1;P1;durP2;ratioP2;P2;SDS_P1;SDS_P2;PMS_P1;PMS_P2;Temp;Humidity;BMP_temperature;BMP_pressure;BME280_temperature;BME280_humidity;BME280_pressure;Samples;Min_cycle;Max_cycle;Signal;HPM_P1;HPM_P2
2024/01/27 00:01:01;;;;;;;22.43;5.00;;;6.00;99.90;;;;;;5109529;28;20199;-65
2024/01/27 00:03:29;;;;;;;18.63;4.63;;;6.10;99.90;;;;;;5109726;28;20265;-64
2024/01/27 00:05:56;;;;;;;17.97;5.13;;;6.00;99.90;;;;;;5109380;28;20675;-64
2024/01/27 00:08:25;;;;;;;17.07;4.53;;;6.00;99.90;;;;;;5109584;28;20676;-64
2024/01/27 00:10:55;;;;;;;20.53;4.40;;;5.90;99.90;;;;;;5109276;28;20204;-65
2024/01/27 00:13:23;;;;;;;17.70;4.23;;;5.90;99.90;;;;;;5109621;28;20539;-64
2024/01/27 00:15:54;;;;;;;22.07;4.97;;;5.90;99.90;;;;;;5109613;28;20196;-64
2024/01/27 00:18:23;;;;;;;22.60;5.20;;;5.90;99.90;;;;;;5109386;28;20203;-64
2024/01/27 00:20:51;;;;;;;17.13;4.20;;;5.80;99.90;;;;;;5109414;28;20667;-64
2024/01/27 00:23:20;;;;;;;22.53;5.03;;;5.80;99.90;;;;;;5109585;28;20195;-64
2024/01/27 00:25:48;;;;;;;21.10;5.03;;;5.70;99.90;;;;;;5109509;28;20198;-64
2024/01/27 00:28:18;;;;;;;21.17;4.87;;;5.70;99.90;;;;;;5109320;28;20265;-63
2024/01/27 00:30:46;;;;;;;20.67;4.60;;;5.70;99.90;;;;;;5109095;28;20228;-62
2024/01/27 00:33:14;;;;;;;19.80;7.73;;;5.70;99.90;;;;;;5109253;28;20710;-64
2024/01/27 00:35:43;;;;;;;18.97;4.57;;;5.70;99.90;;;;;;5109234;28;20217;-64
2024/01/27 00:38:11;;;;;;;14.13;3.80;;;5.70;99.90;;;;;;5109096;28;20282;-64
2024/01/27 00:40:39;;;;;;;11.10;4.20;;;5.80;99.90;;;;;;5109203;28;20208;-64
2024/01/27 00:43:08;;;;;;;19.20;4.87;;;5.80;99.90;;;;;;5109270;28;20190;-64
2024/01/27 00:45:37;;;;;;;18.07;4.23;;;5.70;99.90;;;;;;5109136;28;20249;-64
2024/01/27 00:48:07;;;;;;;17.67;5.23;;;5.80;99.90;;;;;;5109073;28;20680;-64
2024/01/27 00:50:35;;;;;;;17.43;4.40;;;5.70;99.90;;;;;;5109161;28;20208;-64
2024/01/27 00:53:03;;;;;;;13.43;4.17;;;5.70;99.90;;;;;;5109027;28;20261;-64
2024/01/27 00:55:32;;;;;;;17.53;4.50;;;5.70;99.90;;;;;;5109119;28;20197;-64
2024/01/27 00:58:00;;;;;;;11.33;4.73;;;5.60;99.90;;;;;;5109024;28;20257;-64
2024/01/27 01:00:28;;;;;;;12.67;4.00;;;5.70;99.90;;;;;;5108701;28;20662;-64
2024/01/27 01:02:58;;;;;;;15.13;3.73;;;5.70;99.90;;;;;;5108917;28;20200;-64
2024/01/27 01:05:26;;;;;;;12.90;4.10;;;5.60;99.90;;;;;;5112363;28;20207;-64
2024/01/27 01:07:55;;;;;;;26.53;8.27;;;5.50;99.90;;;;;;5112794;28;20183;-64
2024/01/27 01:10:23;;;;;;;13.10;4.20;;;5.50;99.90;;;;;;5112924;28;20192;-64
2024/01/27 01:12:51;;;;;;;14.47;4.20;;;5.50;99.90;;;;;;5112820;28;20226;-63
2024/01/27 01:15:20;;;;;;;17.20;5.17;;;5.60;99.90;;;;;;5112872;28;20191;-64
2024/01/27 01:17:48;;;;;;;15.63;4.17;;;5.50;99.90;;;;;;5112807;28;20661;-64
2024/01/27 01:20:18;;;;;;;12.90;4.13;;;5.50;99.90;;;;;;5112744;28;20228;-63
2024/01/27 01:22:46;;;;;;;9.97;3.60;;;5.50;99.90;;;;;;5112534;28;20192;-63
2024/01/27 01:25:14;;;;;;;11.17;3.53;;;5.40;99.90;;;;;;5112621;28;20207;-63
2024/01/27 01:27:43;;;;;;;14.47;3.63;;;5.40;99.90;;;;;;5112728;28;20747;-64
2024/01/27 01:30:12;;;;;;;9.03;3.20;;;5.30;99.90;;;;;;5112185;28;20247;-64
2024/01/27 01:32:40;;;;;;;11.97;3.23;;;5.30;99.90;;;;;;5112368;28;20243;-65
2024/01/27 01:35:08;;;;;;;7.80;3.40;;;5.30;99.90;;;;;;5112334;28;20245;-64
2024/01/27 01:37:38;;;;;;;11.33;3.77;;;5.30;99.90;;;;;;5112108;28;20211;-64
2024/01/27 01:40:08;;;;;;;8.93;3.80;;;5.30;99.90;;;;;;5112400;28;20195;-64
2024/01/27 01:42:36;;;;;;;9.50;3.50;;;5.30;99.90;;;;;;5112267;28;20192;-64
2024/01/27 01:45:05;;;;;;;12.87;4.00;;;5.30;99.90;;;;;;5112415;28;20593;-64
2024/01/27 01:47:33;;;;;;;7.43;3.40;;;5.30;99.90;;;;;;5111952;28;20206;-64
2024/01/27 01:50:03;;;;;;;9.43;3.40;;;5.20;99.90;;;;;;5093941;28;20203;-64
2024/01/27 01:52:31;;;;;;;7.80;3.80;;;5.10;99.90;;;;;;5093333;28;20216;-64
2024/01/27 01:55:01;;;;;;;11.00;3.13;;;5.10;99.90;;;;;;5112062;28;20191;-64
2024/01/27 01:57:29;;;;;;;10.20;3.50;;;5.20;99.90;;;;;;5112164;28;20203;-64
2024/01/27 01:59:58;;;;;;;10.40;3.40;;;5.30;99.90;;;;;;5111662;28;20200;-64
2024/01/27 02:02:26;;;;;;;7.77;3.60;;;5.30;99.90;;;;;;5111911;28;20654;-64
2024/01/27 02:04:54;;;;;;;14.20;3.43;;;5.20;99.90;;;;;;5111743;28;20203;-64
2024/01/27 02:07:23;;;;;;;5.60;2.67;;;5.20;99.90;;;;;;5111723;28;20191;-64
2024/01/27 02:09:51;;;;;;;7.23;2.97;;;5.20;99.90;;;;;;5111553;28;20211;-64
2024/01/27 02:12:21;;;;;;;9.00;3.10;;;5.10;99.90;;;;;;5111801;28;20211;-64
2024/01/27 02:14:49;;;;;;;5.77;2.93;;;5.10;99.90;;;;;;5111750;28;20638;-64
2024/01/27 02:17:17;;;;;;;7.33;2.80;;;5.10;99.90;;;;;;5111052;28;20188;-64
2024/01/27 02:19:45;;;;;;;4.50;2.20;;;4.90;99.90;;;;;;5111677;28;20337;-64
2024/01/27 02:22:14;;;;;;;7.40;2.27;;;4.90;99.90;;;;;;5111542;28;20196;-64
2024/01/27 02:24:43;;;;;;;5.70;3.00;;;4.80;99.90;;;;;;5111754;28;20277;-63
2024/01/27 02:27:12;;;;;;;2.97;1.97;;;4.90;99.90;;;;;;5111702;28;20576;-64
2024/01/27 02:29:40;;;;;;;6.17;2.50;;;4.80;99.90;;;;;;5111557;28;20204;-64
2024/01/27 02:32:08;;;;;;;3.77;1.93;;;4.80;99.90;;;;;;5111583;28;20199;-64
2024/01/27 02:34:37;;;;;;;5.10;2.37;;;4.80;99.90;;;;;;5111304;28;20200;-64
2024/01/27 02:37:05;;;;;;;3.67;2.33;;;4.80;99.90;;;;;;5111321;28;20202;-64
2024/01/27 02:39:34;;;;;;;3.73;2.70;;;4.70;99.90;;;;;;5111539;28;20229;-64
2024/01/27 02:42:05;;;;;;;8.93;2.43;;;4.70;99.90;;;;;;5111250;28;20223;-64
2024/01/27 02:44:33;;;;;;;7.47;2.57;;;4.70;99.90;;;;;;5111196;28;20658;-64
2024/01/27 02:47:01;;;;;;;6.27;2.70;;;4.70;99.90;;;;;;5111300;28;20196;-64
2024/01/27 02:49:30;;;;;;;6.57;2.33;;;4.70;99.90;;;;;;5111190;28;20242;-64
2024/01/27 02:51:58;;;;;;;3.07;2.77;;;4.80;99.90;;;;;;5111165;28;20281;-64
2024/01/27 02:54:27;;;;;;;6.23;2.77;;;4.80;99.90;;;;;;5111342;28;20234;-64
2024/01/27 02:56:55;;;;;;;4.07;2.70;;;4.80;99.90;;;;;;5111202;28;20207;-64
2024/01/27 02:59:25;;;;;;;5.37;3.10;;;4.90;99.90;;;;;;5111155;28;20726;-64
2024/01/27 03:01:53;;;;;;;5.77;2.73;;;4.90;99.90;;;;;;5111063;28;20200;-65
2024/01/27 03:04:22;;;;;;;5.27;2.60;;;4.90;99.90;;;;;;5111297;28;20366;-64
2024/01/27 03:06:50;;;;;;;5.97;2.90;;;4.90;99.90;;;;;;5110999;28;20199;-64
2024/01/27 03:09:18;;;;;;;8.73;2.90;;;5.00;99.90;;;;;;5111192;28;20306;-63
2024/01/27 03:11:47;;;;;;;8.10;2.70;;;4.90;99.90;;;;;;5110842;28;20211;-64
2024/01/27 03:14:15;;;;;;;4.87;2.30;;;4.90;99.90;;;;;;5110792;28;20222;-64
2024/01/27 03:16:45;;;;;;;5.33;2.40;;;5.00;99.90;;;;;;5110735;28;20203;-64
2024/01/27 03:19:13;;;;;;;7.47;2.73;;;4.90;99.90;;;;;;5110645;28;20196;-64
2024/01/27 03:21:42;;;;;;;6.87;2.77;;;4.90;99.90;;;;;;5110529;28;20196;-64
2024/01/27 03:24:10;;;;;;;4.17;2.90;;;4.90;99.90;;;;;;5110358;28;20673;-64
2024/01/27 03:26:38;;;;;;;5.60;2.63;;;5.00;99.90;;;;;;5110170;28;20200;-64
2024/01/27 03:29:07;;;;;;;7.87;2.40;;;5.00;99.90;;;;;;5091764;28;20200;-65
2024/01/27 03:31:35;;;;;;;4.47;2.27;;;4.90;99.90;;;;;;5109989;28;20728;-64
2024/01/27 03:34:06;;;;;;;7.20;2.47;;;5.00;99.90;;;;;;5110348;28;20251;-64
2024/01/27 03:36:34;;;;;;;4.30;2.30;;;5.00;99.90;;;;;;5109976;28;20257;-64
2024/01/27 03:39:03;;;;;;;4.00;2.80;;;4.90;99.90;;;;;;5109775;28;20188;-65
2024/01/27 03:41:31;;;;;;;4.33;2.20;;;4.90;99.90;;;;;;5109934;28;20198;-64
2024/01/27 03:44:00;;;;;;;5.83;2.33;;;5.00;99.90;;;;;;5110039;28;20229;-63
2024/01/27 03:46:28;;;;;;;6.63;2.43;;;5.00;99.90;;;;;;5109886;28;20188;-64
2024/01/27 03:48:56;;;;;;;4.77;2.80;;;5.10;99.90;;;;;;5109961;28;20595;-64
2024/01/27 03:51:26;;;;;;;3.60;2.23;;;5.10;99.90;;;;;;5109830;28;20273;-64
2024/01/27 03:53:54;;;;;;;3.57;2.00;;;5.10;99.90;;;;;;5109506;28;20223;-63
2024/01/27 03:56:23;;;;;;;3.00;2.00;;;5.10;99.90;;;;;;5109794;28;20188;-64
2024/01/27 03:58:51;;;;;;;2.00;1.80;;;5.10;99.90;;;;;;5109658;28;20272;-63
2024/01/27 04:01:19;;;;;;;2.20;2.00;;;5.00;99.90;;;;;;5109473;28;20224;-63
2024/01/27 04:03:48;;;;;;;1.83;1.60;;;5.00;99.90;;;;;;5109561;28;20672;-63
2024/01/27 04:06:16;;;;;;;2.17;1.80;;;4.90;99.90;;;;;;5109350;28;20199;-63
2024/01/27 04:08:46;;;;;;;2.30;1.80;;;4.80;99.90;;;;;;5109103;28;20192;-64
2024/01/27 04:11:21;;;;;;;1.70;1.60;;;4.90;99.90;;;;;;5109499;28;20200;-64
2024/01/27 04:13:50;;;;;;;1.67;1.57;;;4.90;99.90;;;;;;5109171;28;20786;-64
2024/01/27 04:16:19;;;;;;;1.57;1.57;;;4.80;99.90;;;;;;5109191;28;20188;-64
2024/01/27 04:18:47;;;;;;;1.50;1.40;;;4.80;99.90;;;;;;5109367;28;20198;-63
2024/01/27 04:21:16;;;;;;;1.70;1.60;;;4.80;99.90;;;;;;5109178;28;20223;-63
2024/01/27 04:23:46;;;;;;;1.90;1.80;;;4.90;99.90;;;;;;5108777;28;20199;-64
2024/01/27 04:26:14;;;;;;;1.70;1.60;;;4.70;99.90;;;;;;5108924;28;20711;-63
2024/01/27 04:28:42;;;;;;;1.60;1.50;;;4.60;99.90;;;;;;5109224;28;20207;-63
2024/01/27 04:31:11;;;;;;;1.87;1.70;;;4.60;99.90;;;;;;5090382;28;20724;-64
2024/01/27 04:33:39;;;;;;;1.77;1.67;;;4.70;99.90;;;;;;5108968;28;20696;-63
2024/01/27 04:36:09;;;;;;;2.00;1.90;;;4.80;99.90;;;;;;5108888;28;20686;-64
2024/01/27 04:38:38;;;;;;;1.70;1.60;;;4.90;99.90;;;;;;5108142;28;20199;-64
2024/01/27 04:41:07;;;;;;;2.07;1.67;;;4.90;99.90;;;;;;5108835;28;20230;-64
2024/01/27 04:43:35;;;;;;;1.80;1.70;;;4.70;99.90;;;;;;5108862;28;20191;-64
2024/01/27 04:46:04;;;;;;;1.97;1.87;;;4.60;99.90;;;;;;5108787;28;20676;-64
2024/01/27 04:48:32;;;;;;;2.43;1.93;;;4.60;99.90;;;;;;5108765;28;20271;-65
2024/01/27 04:51:01;;;;;;;2.13;1.83;;;4.60;99.90;;;;;;5108872;28;20204;-64
2024/01/27 04:53:29;;;;;;;2.63;1.90;;;4.40;99.90;;;;;;5108632;28;20194;-64
2024/01/27 04:55:58;;;;;;;1.90;1.80;;;4.40;99.90;;;;;;5109290;28;20202;-64
2024/01/27 04:58:27;;;;;;;1.90;1.80;;;4.30;99.90;;;;;;5109158;28;20202;-65
2024/01/27 05:00:56;;;;;;;2.03;1.67;;;4.40;99.90;;;;;;5108813;28;20191;-64
2024/01/27 05:03:24;;;;;;;1.67;1.57;;;4.30;99.90;;;;;;5109003;28;20278;-64
2024/01/27 05:05:52;;;;;;;1.73;1.63;;;4.50;99.90;;;;;;5109053;28;20725;-64
2024/01/27 05:08:20;;;;;;;2.00;1.90;;;4.50;99.90;;;;;;5108685;28;20210;-64
2024/01/27 05:10:49;;;;;;;2.37;2.10;;;4.50;99.90;;;;;;5108799;28;20192;-65
2024/01/27 05:13:17;;;;;;;4.50;2.13;;;4.50;99.90;;;;;;5108717;28;20211;-65
2024/01/27 05:15:49;;;;;;;2.57;1.90;;;4.60;99.90;;;;;;5108462;28;20228;-64
2024/01/27 05:18:18;;;;;;;2.57;2.40;;;4.70;99.90;;;;;;5108519;28;20195;-64
2024/01/27 05:20:46;;;;;;;3.50;3.20;;;4.70;99.90;;;;;;5108606;28;20202;-65
2024/01/27 05:23:14;;;;;;;6.20;3.50;;;4.60;99.90;;;;;;5108220;28;20203;-64
2024/01/27 05:25:43;;;;;;;12.10;5.77;;;4.50;99.90;;;;;;5108825;28;20196;-64
2024/01/27 05:28:11;;;;;;;6.80;3.23;;;4.50;99.90;;;;;;5108601;28;20721;-64
2024/01/27 05:30:39;;;;;;;4.83;3.97;;;4.50;99.90;;;;;;5108343;28;20681;-64
2024/01/27 05:33:09;;;;;;;7.87;4.80;;;4.60;99.90;;;;;;5108638;28;20278;-64
2024/01/27 05:35:37;;;;;;;3.97;3.40;;;4.60;99.90;;;;;;5108349;28;20704;-64
2024/01/27 05:38:06;;;;;;;3.77;3.00;;;4.60;99.90;;;;;;5108489;28;20188;-64
2024/01/27 05:40:34;;;;;;;3.20;2.23;;;4.60;99.90;;;;;;5090163;28;20200;-64
2024/01/27 05:43:04;;;;;;;2.10;2.00;;;4.60;99.90;;;;;;5108566;28;20605;-64
2024/01/27 05:45:33;;;;;;;2.33;1.87;;;4.60;99.90;;;;;;5108282;28;20677;-64
2024/01/27 05:48:01;;;;;;;2.63;2.00;;;4.60;99.90;;;;;;5108201;28;20200;-64
2024/01/27 05:50:32;;;;;;;2.33;2.03;;;4.60;99.90;;;;;;5108634;28;20638;-64
2024/01/27 05:53:00;;;;;;;2.57;2.10;;;4.60;99.90;;;;;;5112167;28;20261;-64
2024/01/27 05:55:28;;;;;;;2.40;2.10;;;4.60;99.90;;;;;;5112077;28;20231;-64
2024/01/27 05:57:57;;;;;;;2.03;1.90;;;4.60;99.90;;;;;;5112262;28;20214;-65
2024/01/27 06:00:25;;;;;;;1.80;1.70;;;4.80;99.90;;;;;;5112032;28;20200;-64
2024/01/27 06:02:54;;;;;;;2.27;1.90;;;4.80;99.90;;;;;;5112058;28;20203;-64
2024/01/27 06:05:22;;;;;;;1.90;1.80;;;4.70;99.90;;;;;;5112350;28;20204;-64
2024/01/27 06:07:52;;;;;;;2.13;1.90;;;4.70;99.90;;;;;;5112071;28;20196;-64
2024/01/27 06:10:21;;;;;;;1.73;1.63;;;4.70;99.90;;;;;;5112137;28;20206;-65
2024/01/27 06:12:49;;;;;;;1.80;1.70;;;4.50;99.90;;;;;;5111789;28;20192;-64
2024/01/27 06:15:18;;;;;;;2.37;1.80;;;4.30;99.90;;;;;;5111841;28;20619;-64
2024/01/27 06:17:46;;;;;;;1.63;1.60;;;4.20;99.90;;;;;;5111850;28;20199;-64
2024/01/27 06:20:16;;;;;;;3.60;1.93;;;4.20;99.90;;;;;;5111933;28;20196;-63
2024/01/27 06:22:44;;;;;;;4.60;2.00;;;4.30;99.90;;;;;;5111740;28;20208;-64
2024/01/27 06:25:16;;;;;;;2.53;1.90;;;4.20;99.90;;;;;;5092878;28;20203;-64
2024/01/27 06:27:45;;;;;;;1.90;1.80;;;4.30;99.90;;;;;;5111893;28;20206;-64
2024/01/27 06:30:14;;;;;;;3.00;2.70;;;4.20;99.90;;;;;;5111292;28;20227;-64
2024/01/27 06:32:43;;;;;;;3.27;1.90;;;4.30;99.90;;;;;;5111651;28;20188;-64
2024/01/27 06:35:12;;;;;;;3.00;2.37;;;4.20;99.90;;;;;;5111317;28;20714;-64
2024/01/27 06:37:40;;;;;;;2.07;1.97;;;4.30;99.90;;;;;;5111443;28;20199;-64
2024/01/27 06:40:10;;;;;;;2.77;2.40;;;4.30;99.90;;;;;;5111196;28;20195;-64
2024/01/27 06:42:39;;;;;;;3.13;2.03;;;4.40;99.90;;;;;;5111161;28;20187;-64
2024/01/27 06:45:08;;;;;;;4.20;2.40;;;4.30;99.90;;;;;;5110765;28;20231;-64
2024/01/27 06:47:37;;;;;;;3.03;2.60;;;4.30;99.90;;;;;;5110895;28;20195;-64
2024/01/27 06:50:07;;;;;;;2.90;2.70;;;4.40;99.90;;;;;;5111026;28;20242;-64
2024/01/27 06:52:35;;;;;;;3.43;2.67;;;4.40;99.90;;;;;;5110695;28;20964;-65
2024/01/27 06:55:06;;;;;;;2.17;2.00;;;4.40;99.90;;;;;;5110447;28;20216;-64
2024/01/27 06:57:35;;;;;;;2.60;2.13;;;4.30;99.90;;;;;;5110722;28;20288;-64
2024/01/27 07:00:06;;;;;;;2.97;2.10;;;4.50;99.90;;;;;;5110602;28;20200;-64
2024/01/27 07:02:34;;;;;;;2.87;2.43;;;4.50;99.90;;;;;;5110215;28;20223;-64
2024/01/27 07:05:02;;;;;;;2.90;2.17;;;4.40;99.90;;;;;;5110374;28;20539;-63
2024/01/27 07:07:31;;;;;;;2.83;2.40;;;4.40;99.90;;;;;;5110527;28;20192;-64
2024/01/27 07:09:59;;;;;;;3.30;2.07;;;4.50;99.90;;;;;;5110183;28;20196;-65
2024/01/27 07:12:28;;;;;;;2.33;2.17;;;4.40;99.90;;;;;;5110278;28;20208;-65
2024/01/27 07:14:56;;;;;;;2.90;1.97;;;4.40;99.90;;;;;;5110332;28;20647;-65
2024/01/27 07:17:26;;;;;;;2.70;2.07;;;4.30;99.90;;;;;;5110262;28;20242;-64
2024/01/27 07:19:55;;;;;;;2.10;1.90;;;4.40;99.90;;;;;;5110337;28;20588;-64
2024/01/27 07:22:24;;;;;;;2.43;2.23;;;4.50;99.90;;;;;;5110263;28;20196;-64
2024/01/27 07:24:53;;;;;;;3.10;2.90;;;4.50;99.90;;;;;;5109789;28;20784;-64
2024/01/27 07:27:21;;;;;;;4.37;2.57;;;4.50;99.90;;;;;;5110107;28;20199;-64
2024/01/27 07:29:50;;;;;;;3.57;2.53;;;4.30;99.90;;;;;;5109753;28;20247;-64
2024/01/27 07:32:19;;;;;;;2.93;2.73;;;4.30;99.90;;;;;;5109963;28;20305;-64
2024/01/27 07:34:48;;;;;;;2.70;2.47;;;4.50;99.90;;;;;;5110089;28;20242;-65
2024/01/27 07:37:17;;;;;;;2.73;2.40;;;4.30;99.90;;;;;;5109650;28;20246;-64
2024/01/27 07:39:45;;;;;;;3.10;2.53;;;4.30;99.90;;;;;;5109805;28;20203;-64
2024/01/27 07:42:13;;;;;;;4.57;2.43;;;4.20;99.90;;;;;;5109817;28;20203;-64
2024/01/27 07:44:42;;;;;;;2.40;2.20;;;4.10;99.90;;;;;;5091315;28;20204;-64
2024/01/27 07:47:10;;;;;;;2.90;2.10;;;4.20;99.90;;;;;;5109565;28;20212;-64
2024/01/27 07:49:39;;;;;;;2.90;2.60;;;4.10;99.90;;;;;;5109683;28;20304;-64
2024/01/27 07:52:08;;;;;;;5.33;2.87;;;4.20;99.90;;;;;;5109673;28;20192;-64
2024/01/27 07:54:38;;;;;;;3.40;2.30;;;4.20;99.90;;;;;;5109252;28;20195;-64
2024/01/27 07:57:07;;;;;;;2.73;2.53;;;4.20;99.90;;;;;;5109565;28;20251;-64
2024/01/27 07:59:36;;;;;;;13.17;8.10;;;4.30;99.90;;;;;;5109276;28;20188;-64
2024/01/27 08:02:04;;;;;;;8.80;3.60;;;4.50;99.90;;;;;;5109447;28;20204;-64
2024/01/27 08:04:32;;;;;;;5.60;3.57;;;4.40;99.90;;;;;;5109294;28;20276;-64
2024/01/27 08:07:05;;;;;;;4.20;2.70;;;4.30;99.90;;;;;;5109278;28;20187;-64
2024/01/27 08:09:36;;;;;;;2.83;2.63;;;4.20;99.90;;;;;;5109070;28;20199;-64
2024/01/27 08:12:05;;;;;;;3.40;2.23;;;4.30;99.90;;;;;;5109165;28;20291;-64
2024/01/27 08:14:35;;;;;;;4.17;3.00;;;4.30;99.90;;;;;;5108480;28;20688;-64
2024/01/27 08:17:04;;;;;;;3.73;3.40;;;4.10;99.90;;;;;;5108893;28;20282;-64
2024/01/27 08:19:32;;;;;;;3.07;2.87;;;4.00;99.90;;;;;;5109237;28;20195;-64
2024/01/27 08:22:01;;;;;;;2.67;2.37;;;4.00;99.90;;;;;;5109085;28;20601;-63
2024/01/27 08:24:29;;;;;;;3.60;3.30;;;4.00;99.90;;;;;;5108757;28;20206;-64
2024/01/27 08:27:00;;;;;;;3.20;2.67;;;4.10;99.90;;;;;;5108892;28;20231;-65
2024/01/27 08:29:28;;;;;;;6.30;4.00;;;4.10;99.90;;;;;;5108608;28;20248;-64
2024/01/27 08:31:57;;;;;;;4.43;3.67;;;4.00;99.90;;;;;;5108666;28;20260;-64
2024/01/27 08:34:26;;;;;;;3.87;3.20;;;4.00;99.90;;;;;;5089677;28;20208;-63
2024/01/27 08:37:01;;;;;;;6.83;4.40;;;4.10;99.90;;;;;;5078824;28;20582;-66
2024/01/27 08:39:29;;;;;;;4.53;3.40;;;4.30;99.90;;;;;;5087769;28;20203;-65
2024/01/27 08:41:59;;;;;;;5.40;3.90;;;4.10;99.90;;;;;;5088324;28;20248;-65
2024/01/27 08:44:27;;;;;;;5.57;3.53;;;4.00;99.90;;;;;;5088462;28;20223;-65
2024/01/27 08:46:55;;;;;;;4.70;3.97;;;4.00;99.90;;;;;;5088380;28;20227;-65
2024/01/27 08:49:27;;;;;;;7.97;3.77;;;4.10;99.90;;;;;;5087688;28;20202;-63
2024/01/27 08:51:56;;;;;;;11.17;6.47;;;4.00;99.90;;;;;;5088332;28;20208;-64
2024/01/27 08:54:24;;;;;;;4.53;3.50;;;4.20;99.90;;;;;;5087676;28;20230;-64
2024/01/27 08:56:53;;;;;;;5.60;3.83;;;4.30;99.90;;;;;;5106540;28;20227;-64
2024/01/27 08:59:22;;;;;;;4.03;3.00;;;4.10;99.90;;;;;;5107946;28;20274;-65
2024/01/27 09:01:51;;;;;;;4.30;2.93;;;4.30;99.90;;;;;;5108414;28;20742;-66
2024/01/27 09:04:19;;;;;;;3.57;2.77;;;4.30;99.90;;;;;;5108207;28;20294;-65
2024/01/27 09:06:48;;;;;;;4.00;2.70;;;4.30;99.90;;;;;;5107988;28;20192;-67
2024/01/27 09:09:16;;;;;;;2.70;2.47;;;4.40;99.90;;;;;;5107991;28;20318;-64
2024/01/27 09:11:45;;;;;;;2.97;2.77;;;4.40;99.90;;;;;;5107626;28;20297;-65
2024/01/27 09:14:14;;;;;;;3.93;2.57;;;4.50;99.90;;;;;;5107680;28;20200;-62
2024/01/27 09:16:45;;;;;;;3.63;3.10;;;4.50;99.90;;;;;;5108096;28;20233;-64
2024/01/27 09:19:14;;;;;;;3.20;2.60;;;4.60;99.90;;;;;;5096223;28;20625;-65
2024/01/27 09:21:42;;;;;;;3.30;3.00;;;4.60;99.90;;;;;;5087995;28;20197;-63
2024/01/27 09:24:10;;;;;;;2.60;2.40;;;4.60;99.90;;;;;;5087761;28;20220;-64
2024/01/27 09:26:42;;;;;;;5.13;3.00;;;4.60;99.90;;;;;;5092007;28;20229;-68
2024/01/27 09:29:10;;;;;;;5.27;2.57;;;4.60;99.90;;;;;;5092206;28;20206;-64
2024/01/27 09:31:38;;;;;;;7.57;4.40;;;4.70;99.90;;;;;;5091821;28;20283;-65
2024/01/27 09:34:08;;;;;;;4.30;3.13;;;4.60;99.90;;;;;;5092069;28;20201;-66
2024/01/27 09:36:37;;;;;;;3.50;3.07;;;4.70;99.90;;;;;;5091782;28;20216;-66
2024/01/27 09:39:08;;;;;;;4.80;2.90;;;4.70;99.90;;;;;;5091539;28;20193;-66
2024/01/27 09:41:37;;;;;;;3.70;2.63;;;4.70;99.90;;;;;;5091576;28;20208;-66
2024/01/27 09:44:06;;;;;;;3.77;2.37;;;4.70;99.90;;;;;;5091822;28;20193;-67
2024/01/27 09:46:34;;;;;;;4.77;2.80;;;4.60;99.90;;;;;;5091897;28;20211;-65
2024/01/27 09:49:04;;;;;;;4.17;3.07;;;4.70;99.90;;;;;;5091668;28;20201;-65
2024/01/27 09:51:36;;;;;;;4.67;2.40;;;4.80;99.90;;;;;;5091432;28;20739;-66
2024/01/27 09:54:06;;;;;;;3.50;2.47;;;4.80;99.90;;;;;;5091547;28;20196;-67
2024/01/27 09:56:35;;;;;;;3.27;2.87;;;4.90;99.90;;;;;;5091330;28;20678;-65
2024/01/27 09:59:05;;;;;;;6.27;2.90;;;4.90;99.90;;;;;;5091324;28;20200;-67
2024/01/27 10:01:36;;;;;;;4.20;2.90;;;4.80;99.90;;;;;;5091469;28;20556;-66
2024/01/27 10:04:05;;;;;;;2.90;2.60;;;4.90;99.90;;;;;;5091459;28;20199;-65
2024/01/27 10:06:33;;;;;;;3.77;2.63;;;5.00;99.90;;;;;;5091181;28;20196;-66
2024/01/27 10:09:03;;;;;;;4.20;3.03;;;5.00;99.90;;;;;;5091389;28;20196;-64
2024/01/27 10:11:34;;;;;;;5.70;3.70;;;5.10;99.90;;;;;;5091108;28;20255;-65
2024/01/27 10:14:03;;;;;;;7.70;3.23;;;5.00;99.90;;;;;;5091284;28;20207;-64
2024/01/27 10:16:41;;;;;;;6.57;3.97;;;5.00;99.90;;;;;;5091258;28;20261;-64
2024/01/27 10:19:16;;;;;;;5.60;3.63;;;5.00;99.90;;;;;;5090986;28;20200;-66
2024/01/27 10:21:45;;;;;;;6.40;2.60;;;5.00;99.90;;;;;;5091134;28;20207;-66
2024/01/27 10:24:14;;;;;;;5.63;2.90;;;5.00;99.90;;;;;;5091048;28;20279;-66
2024/01/27 10:26:43;;;;;;;5.13;2.87;;;5.00;99.90;;;;;;5090816;28;20199;-65
2024/01/27 10:29:12;;;;;;;3.47;2.87;;;5.00;99.90;;;;;;5090966;28;20705;-65
2024/01/27 10:31:40;;;;;;;7.27;3.37;;;5.00;99.90;;;;;;5091096;28;20228;-65
2024/01/27 10:34:14;;;;;;;4.60;3.47;;;5.00;99.90;;;;;;5091116;28;20199;-66
2024/01/27 10:36:44;;;;;;;8.10;4.10;;;5.00;99.90;;;;;;5090017;28;20199;-66
2024/01/27 10:39:20;;;;;;;6.83;3.33;;;5.00;99.90;;;;;;5090618;28;20235;-66
2024/01/27 10:41:49;;;;;;;5.60;3.30;;;5.00;99.90;;;;;;5090070;28;20686;-66
2024/01/27 10:44:19;;;;;;;4.97;3.00;;;5.10;99.90;;;;;;5090558;28;20188;-65
2024/01/27 10:46:49;;;;;;;8.57;5.57;;;5.20;99.90;;;;;;5090646;28;20207;-65
2024/01/27 10:49:19;;;;;;;4.83;2.80;;;5.20;99.90;;;;;;5090711;28;20234;-65
2024/01/27 10:51:54;;;;;;;3.20;2.70;;;5.20;99.90;;;;;;5090536;28;20667;-66
2024/01/27 10:54:26;;;;;;;5.10;2.87;;;5.10;99.90;;;;;;5090680;28;20969;-65
2024/01/27 10:56:58;;;;;;;5.37;3.23;;;5.10;99.90;;;;;;5090091;28;20203;-66
2024/01/27 10:59:28;;;;;;;4.23;2.83;;;5.00;99.90;;;;;;5090261;28;20220;-66
2024/01/27 11:01:56;;;;;;;3.73;2.83;;;5.10;99.90;;;;;;5090019;28;20671;-65
2024/01/27 11:04:26;;;;;;;8.77;3.20;;;5.00;99.90;;;;;;5090618;28;20201;-65
2024/01/27 11:06:57;;;;;;;5.10;3.10;;;5.10;99.90;;;;;;5090379;28;20581;-65
2024/01/27 11:09:29;;;;;;;3.57;2.47;;;5.10;99.90;;;;;;5090385;28;20188;-66
2024/01/27 11:11:58;;;;;;;8.57;2.83;;;5.10;99.90;;;;;;5090203;28;20215;-66
2024/01/27 11:14:26;;;;;;;4.20;2.77;;;5.10;99.90;;;;;;5090525;28;20557;-63
2024/01/27 11:16:58;;;;;;;4.77;2.87;;;5.10;99.90;;;;;;5071942;28;20677;-65
2024/01/27 11:19:28;;;;;;;7.90;4.27;;;5.20;99.90;;;;;;5090058;28;20202;-66
2024/01/27 11:22:05;;;;;;;4.37;3.33;;;5.40;99.90;;;;;;5089925;28;20613;-66
2024/01/27 11:24:35;;;;;;;5.47;3.07;;;5.30;99.90;;;;;;5089992;28;20666;-66
2024/01/27 11:27:05;;;;;;;4.97;2.50;;;5.30;99.90;;;;;;5089722;28;20294;-65
2024/01/27 11:29:34;;;;;;;7.40;2.47;;;5.40;99.90;;;;;;5089544;28;20646;-65
2024/01/27 11:32:04;;;;;;;4.70;2.60;;;5.30;99.90;;;;;;5089658;28;20580;-65
2024/01/27 11:34:43;;;;;;;4.67;2.53;;;5.30;99.90;;;;;;5089615;28;20280;-66
2024/01/27 11:37:14;;;;;;;4.00;2.53;;;5.20;99.90;;;;;;5070945;28;20200;-65
2024/01/27 11:39:43;;;;;;;6.10;2.77;;;5.30;99.90;;;;;;5070797;28;20637;-66
2024/01/27 11:42:13;;;;;;;6.17;2.47;;;5.40;99.90;;;;;;5089182;28;20633;-65
2024/01/27 11:44:42;;;;;;;4.73;2.90;;;5.30;99.90;;;;;;5089418;28;20288;-67
2024/01/27 11:47:16;;;;;;;6.80;3.00;;;5.40;99.90;;;;;;5089070;28;20832;-67
2024/01/27 11:49:51;;;;;;;7.47;3.03;;;5.40;99.90;;;;;;5088187;28;20279;-66
2024/01/27 11:52:19;;;;;;;4.87;2.70;;;5.40;99.90;;;;;;5089200;28;20290;-67
2024/01/27 11:54:55;;;;;;;4.47;3.03;;;5.50;99.90;;;;;;5089222;28;20246;-66
2024/01/27 11:57:23;;;;;;;9.73;2.67;;;5.70;99.90;;;;;;5089015;28;20203;-66
2024/01/27 11:59:52;;;;;;;10.93;2.70;;;5.60;99.90;;;;;;5089007;28;20648;-67
2024/01/27 12:02:20;;;;;;;6.60;3.17;;;5.70;99.90;;;;;;5088964;28;20287;-67
2024/01/27 12:04:49;;;;;;;5.80;3.10;;;5.70;99.90;;;;;;5070718;28;20606;-67
2024/01/27 12:07:19;;;;;;;7.90;4.50;;;5.60;99.90;;;;;;5089114;28;20300;-67
2024/01/27 12:09:51;;;;;;;4.27;2.60;;;5.80;99.90;;;;;;5088852;28;20232;-67
2024/01/27 12:12:20;;;;;;;8.17;2.80;;;5.70;99.90;;;;;;5088627;28;20726;-66
2024/01/27 12:14:50;;;;;;;6.00;3.07;;;5.70;99.90;;;;;;5088809;28;20691;-66
2024/01/27 12:17:20;;;;;;;6.20;2.97;;;5.80;99.90;;;;;;5088843;28;20201;-65
2024/01/27 12:19:49;;;;;;;6.27;3.10;;;5.80;99.90;;;;;;5088689;28;21058;-65
2024/01/27 12:22:25;;;;;;;7.23;3.87;;;5.80;99.90;;;;;;5088602;28;20247;-66
2024/01/27 12:24:56;;;;;;;7.50;2.90;;;5.70;99.90;;;;;;5088803;28;20221;-65
2024/01/27 12:27:25;;;;;;;4.50;3.07;;;5.80;99.90;;;;;;5088356;28;20250;-66
2024/01/27 12:29:53;;;;;;;9.30;3.83;;;5.90;99.90;;;;;;5088705;28;20322;-66
2024/01/27 12:32:22;;;;;;;10.37;4.70;;;5.90;99.90;;;;;;5088284;28;20708;-65
2024/01/27 12:34:50;;;;;;;10.37;4.13;;;6.10;99.90;;;;;;5088626;28;20204;-65
2024/01/27 12:37:19;;;;;;;5.87;3.33;;;6.10;99.90;;;;;;5088210;28;20680;-65
2024/01/27 12:39:50;;;;;;;10.00;3.57;;;6.30;99.90;;;;;;5088477;28;20227;-65
2024/01/27 12:42:20;;;;;;;6.73;3.60;;;6.20;99.90;;;;;;5087932;28;20287;-65
2024/01/27 12:44:48;;;;;;;10.40;4.07;;;6.20;99.90;;;;;;5088567;28;20205;-65
2024/01/27 12:47:16;;;;;;;9.87;3.67;;;6.10;99.90;;;;;;5088375;28;20658;-65
2024/01/27 12:49:45;;;;;;;13.93;7.50;;;5.90;99.90;;;;;;5088317;28;20197;-67
2024/01/27 12:52:13;;;;;;;10.07;2.93;;;5.90;99.90;;;;;;5088278;28;20196;-65
2024/01/27 12:54:42;;;;;;;9.57;4.20;;;5.80;99.90;;;;;;5088056;28;20196;-65
2024/01/27 12:57:10;;;;;;;9.03;3.87;;;6.00;99.90;;;;;;5087989;28;20214;-64
2024/01/27 12:59:40;;;;;;;4.70;2.90;;;6.20;99.90;;;;;;5088779;28;20231;-64
2024/01/27 13:02:09;;;;;;;10.83;3.50;;;6.10;99.90;;;;;;5092476;28;20295;-64
2024/01/27 13:04:37;;;;;;;11.17;4.10;;;6.20;99.90;;;;;;5092366;28;20577;-64